| time (UTC) | temp F | wind direction | speed MPH | gust MPH | rain 1hr in | rain 24hr in | rain mn in | humidity % | barometer mb |
| 20260509160527 | 48 | 0 | 0.0 | 3.0 | 0.04 | 0.13 | 0.13 | 89 | 1013.6 |
| 20260509160039 | 48 | 17 | 0.0 | 3.0 | 0.03 | 0.12 | 0.12 | 90 | 1013.5 |
| 20260509155525 | 48 | 1 | 0.0 | 2.0 | 0.03 | 0.12 | 0.12 | 89 | 1013.5 |
| 20260509155025 | 48 | 345 | 0.0 | 4.0 | 0.04 | 0.12 | 0.12 | 89 | 1013.5 |
| 20260509154541 | 48 | 122 | 1.0 | 4.0 | 0.03 | 0.11 | 0.11 | 89 | 1013.6 |
| 20260509154027 | 48 | 342 | 0.0 | 3.0 | 0.03 | 0.11 | 0.11 | 88 | 1013.7 |
| 20260509153525 | 48 | 147 | 0.0 | 2.0 | 0.03 | 0.11 | 0.11 | 90 | 1013.7 |
| 20260509153036 | 48 | 340 | 0.0 | 1.0 | 0.03 | 0.10 | 0.10 | 90 | 1013.8 |
| 20260509152526 | 47 | 0 | 0.0 | 1.0 | 0.03 | 0.10 | 0.10 | 90 | 1013.9 |
| 20260509152024 | 47 | 341 | 0.0 | 1.0 | 0.03 | 0.10 | 0.10 | 90 | 1014.0 |
| 20260509151535 | 47 | 91 | 0.0 | 1.0 | 0.04 | 0.10 | 0.10 | 90 | 1014.0 |
| 20260509151026 | 47 | 0 | 0.0 | 1.0 | 0.03 | 0.09 | 0.09 | 89 | 1014.2 |
| 20260509150526 | 46 | 0 | 0.0 | 1.0 | 0.03 | 0.09 | 0.09 | 89 | 1014.2 |
| 20260509150040 | 46 | 0 | 0.0 | 1.0 | 0.04 | 0.09 | 0.09 | 88 | 1014.3 |
| 20260509145526 | 46 | 0 | 0.0 | 0.0 | 0.04 | 0.09 | 0.09 | 88 | 1014.3 |
| 20260509145026 | 46 | 0 | 0.0 | 0.0 | 0.03 | 0.08 | 0.08 | 89 | 1014.4 |
| 20260509144558 | 46 | 0 | 0.0 | 0.0 | 0.04 | 0.08 | 0.08 | 89 | 1014.5 |
| 20260509144026 | 46 | 0 | 0.0 | 0.0 | 0.04 | 0.08 | 0.08 | 89 | 1014.5 |
| 20260509143527 | 46 | 0 | 0.0 | 0.0 | 0.05 | 0.08 | 0.08 | 89 | 1014.5 |
| 20260509143041 | 46 | 0 | 0.0 | 0.0 | 0.04 | 0.07 | 0.07 | 89 | 1014.5 |
| 20260509142526 | 46 | 0 | 0.0 | 0.0 | 0.04 | 0.07 | 0.07 | 89 | 1014.8 |
| 20260509142029 | 46 | 0 | 0.0 | 0.0 | 0.04 | 0.07 | 0.07 | 89 | 1014.8 |
| 20260509141540 | 46 | 0 | 0.0 | 0.0 | 0.04 | 0.06 | 0.06 | 90 | 1014.6 |
| 20260509141027 | 45 | 0 | 0.0 | 0.0 | 0.04 | 0.06 | 0.06 | 90 | 1014.7 |
| 20260509140527 | 45 | 0 | 0.0 | 0.0 | 0.03 | 0.05 | 0.05 | 89 | 1014.7 |
| 20260509140058 | 45 | 0 | 0.0 | 0.0 | 0.03 | 0.05 | 0.05 | 89 | 1014.9 |
| 20260509135526 | 45 | 0 | 0.0 | 0.0 | 0.04 | 0.05 | 0.05 | 89 | 1014.8 |
| 20260509135027 | 45 | 0 | 0.0 | 0.0 | 0.03 | 0.04 | 0.04 | 89 | 1014.8 |
| 20260509134537 | 45 | 204 | 0.0 | 0.0 | 0.03 | 0.04 | 0.04 | 88 | 1014.6 |
| 20260509134028 | 45 | 0 | 0.0 | 0.0 | 0.03 | 0.04 | 0.04 | 88 | 1014.6 |
| 20260509133525 | 45 | 0 | 0.0 | 0.0 | 0.02 | 0.03 | 0.03 | 87 | 1014.6 |
| 20260509133040 | 45 | 0 | 0.0 | 0.0 | 0.03 | 0.03 | 0.03 | 88 | 1014.4 |
| 20260509132525 | 45 | 0 | 0.0 | 0.0 | 0.03 | 0.03 | 0.03 | 87 | 1014.3 |
| 20260509132023 | 45 | 0 | 0.0 | 0.0 | 0.03 | 0.03 | 0.03 | 87 | 1014.3 |
| 20260509131549 | 44 | 0 | 0.0 | 0.0 | 0.02 | 0.02 | 0.02 | 87 | 1014.3 |
| 20260509131023 | 44 | 0 | 0.0 | 0.0 | 0.02 | 0.02 | 0.02 | 87 | 1014.2 |
| 20260509130523 | 44 | 0 | 0.0 | 0.0 | 0.02 | 0.02 | 0.02 | 87 | 1014.3 |
| 20260509130044 | 44 | 0 | 0.0 | 0.0 | 0.01 | 0.01 | 0.01 | 86 | 1014.3 |
| 20260509125527 | 44 | 0 | 0.0 | 0.0 | 0.01 | 0.01 | 0.01 | 85 | 1014.3 |
| 20260509125026 | 44 | 0 | 0.0 | 0.0 | 0.01 | 0.01 | 0.01 | 85 | 1014.4 |
| 20260509124542 | 44 | 0 | 0.0 | 0.0 | 0.01 | 0.01 | 0.01 | 84 | 1014.3 |
| 20260509124027 | 44 | 0 | 0.0 | 0.0 | 0.01 | 0.01 | 0.01 | 84 | 1014.4 |
| 20260509123526 | 44 | 0 | 0.0 | 0.0 | 0.01 | 0.01 | 0.01 | 84 | 1014.6 |
| 20260509123041 | 45 | 171 | 0.0 | 0.0 | 0.00 | 0.00 | 0.00 | 85 | 1014.8 |
| 20260509122526 | 45 | 172 | 0.0 | 0.0 | 0.00 | 0.00 | 0.00 | 83 | 1014.9 |
| 20260509122025 | 45 | 0 | 0.0 | 0.0 | 0.00 | 0.00 | 0.00 | 82 | 1014.7 |
| 20260509121551 | 45 | 0 | 0.0 | 0.0 | 0.00 | 0.00 | 0.00 | 81 | 1014.5 |
| 20260509121033 | 45 | 0 | 0.0 | 0.0 | 0.00 | 0.00 | 0.00 | 80 | 1014.5 |
| 20260509120526 | 45 | 0 | 0.0 | 1.0 | 0.00 | 0.00 | 0.00 | 80 | 1014.5 |
| 20260509120038 | 45 | 226 | 0.0 | 1.0 | 0.00 | 0.00 | 0.00 | 80 | 1014.5 |
| 20260509115526 | 44 | 0 | 0.0 | 1.0 | 0.00 | 0.00 | 0.00 | 80 | 1014.6 |
| 20260509115026 | 44 | 0 | 0.0 | 0.0 | 0.00 | 0.00 | 0.00 | 80 | 1014.7 |
| 20260509114539 | 44 | 0 | 0.0 | 1.0 | 0.00 | 0.00 | 0.00 | 81 | 1014.7 |
| 20260509114027 | 43 | 0 | 0.0 | 1.0 | 0.00 | 0.00 | 0.00 | 82 | 1014.6 |
| 20260509113526 | 43 | 0 | 0.0 | 1.0 | 0.00 | 0.00 | 0.00 | 83 | 1014.6 |
| 20260509113050 | 42 | 120 | 0.0 | 1.0 | 0.00 | 0.00 | 0.00 | 85 | 1014.5 |
| 20260509112524 | 42 | 0 | 0.0 | 1.0 | 0.00 | 0.00 | 0.00 | 86 | 1014.4 |
| 20260509112026 | 41 | 198 | 0.0 | 0.0 | 0.00 | 0.00 | 0.00 | 87 | 1014.5 |
| 20260509111541 | 40 | 0 | 0.0 | 0.0 | 0.00 | 0.00 | 0.00 | 89 | 1014.5 |
| 20260509111027 | 40 | 0 | 0.0 | 0.0 | 0.00 | 0.00 | 0.00 | 91 | 1014.4 |
| 20260509110526 | 40 | 0 | 0.0 | 0.0 | 0.00 | 0.00 | 0.00 | 92 | 1014.4 |
| 20260509110038 | 39 | 0 | 0.0 | 0.0 | 0.00 | 0.00 | 0.00 | 93 | 1014.4 |
| 20260509105525 | 39 | 0 | 0.0 | 0.0 | 0.00 | 0.00 | 0.00 | 93 | 1014.4 |
| 20260509105026 | 39 | 0 | 0.0 | 0.0 | 0.00 | 0.00 | 0.00 | 94 | 1014.6 |
| 20260509104537 | 38 | 0 | 0.0 | 0.0 | 0.00 | 0.00 | 0.00 | 94 | 1014.5 |
| 20260509104024 | 38 | 0 | 0.0 | 0.0 | 0.00 | 0.00 | 0.00 | 94 | 1014.6 |
| 20260509103526 | 38 | 0 | 0.0 | 0.0 | 0.00 | 0.00 | 0.00 | 94 | 1014.4 |
| 20260509103039 | 37 | 0 | 0.0 | 0.0 | 0.00 | 0.00 | 0.00 | 94 | 1014.4 |
| 20260509102525 | 37 | 0 | 0.0 | 0.0 | 0.00 | 0.00 | 0.00 | 94 | 1014.4 |
| 20260509102027 | 36 | 0 | 0.0 | 0.0 | 0.00 | 0.00 | 0.00 | 94 | 1014.4 |
| 20260509101537 | 36 | 0 | 0.0 | 0.0 | 0.00 | 0.00 | 0.00 | 94 | 1014.4 |
| 20260509101025 | 35 | 0 | 0.0 | 0.0 | 0.00 | 0.00 | 0.00 | 94 | 1014.2 |
| 20260509100526 | 35 | 0 | 0.0 | 0.0 | 0.00 | 0.00 | 0.00 | 93 | 1014.2 |
| 20260509100041 | 35 | 0 | 0.0 | 0.0 | 0.00 | 0.00 | 0.00 | 93 | 1014.2 |
| 20260509095526 | 34 | 0 | 0.0 | 0.0 | 0.00 | 0.00 | 0.00 | 93 | 1014.1 |
| 20260509095026 | 34 | 0 | 0.0 | 0.0 | 0.00 | 0.00 | 0.00 | 93 | 1014.0 |
| 20260509094538 | 34 | 0 | 0.0 | 0.0 | 0.00 | 0.00 | 0.00 | 93 | 1014.0 |
| 20260509094027 | 34 | 0 | 0.0 | 0.0 | 0.00 | 0.00 | 0.00 | 93 | 1013.9 |
| 20260509093526 | 34 | 0 | 0.0 | 0.0 | 0.00 | 0.00 | 0.00 | 93 | 1014.0 |
| 20260509093038 | 34 | 0 | 0.0 | 0.0 | 0.00 | 0.00 | 0.00 | 92 | 1013.9 |
| 20260509092526 | 34 | 0 | 0.0 | 0.0 | 0.00 | 0.00 | 0.00 | 93 | 1013.8 |
| 20260509092025 | 34 | 0 | 0.0 | 0.0 | 0.00 | 0.00 | 0.00 | 93 | 1013.8 |
| 20260509091540 | 34 | 0 | 0.0 | 0.0 | 0.00 | 0.00 | 0.00 | 92 | 1013.7 |
| 20260509091025 | 34 | 0 | 0.0 | 0.0 | 0.00 | 0.00 | 0.00 | 92 | 1013.7 |
| 20260509090526 | 34 | 0 | 0.0 | 0.0 | 0.00 | 0.00 | 0.00 | 92 | 1013.8 |
| 20260509090056 | 34 | 0 | 0.0 | 0.0 | 0.00 | 0.00 | 0.00 | 92 | 1013.7 |
| 20260509085525 | 34 | 0 | 0.0 | 0.0 | 0.00 | 0.00 | 0.00 | 92 | 1013.7 |
| 20260509085025 | 33 | 0 | 0.0 | 0.0 | 0.00 | 0.00 | 0.00 | 92 | 1013.7 |
| 20260509084544 | 33 | 0 | 0.0 | 0.0 | 0.00 | 0.00 | 0.00 | 91 | 1013.6 |
| 20260509084025 | 33 | 0 | 0.0 | 0.0 | 0.00 | 0.00 | 0.00 | 91 | 1013.7 |
| 20260509083524 | 34 | 0 | 0.0 | 0.0 | 0.00 | 0.00 | 0.00 | 91 | 1013.5 |
| 20260509083048 | 34 | 0 | 0.0 | 0.0 | 0.00 | 0.00 | 0.00 | 91 | 1013.4 |
| 20260509082526 | 34 | 0 | 0.0 | 0.0 | 0.00 | 0.00 | 0.00 | 91 | 1013.4 |
| 20260509082026 | 34 | 0 | 0.0 | 0.0 | 0.00 | 0.00 | 0.00 | 91 | 1013.5 |
| 20260509081539 | 35 | 0 | 0.0 | 0.0 | 0.00 | 0.00 | 0.00 | 91 | 1013.5 |
| 20260509081026 | 35 | 0 | 0.0 | 0.0 | 0.00 | 0.00 | 0.00 | 90 | 1013.6 |
| 20260509080523 | 35 | 0 | 0.0 | 0.0 | 0.00 | 0.00 | 0.00 | 90 | 1013.6 |
| 20260509080037 | 35 | 0 | 0.0 | 0.0 | 0.00 | 0.00 | 0.00 | 91 | 1013.6 |
| 20260509075525 | 35 | 0 | 0.0 | 0.0 | 0.00 | 0.00 | 0.00 | 90 | 1013.7 |
| 20260509075026 | 35 | 0 | 0.0 | 0.0 | 0.00 | 0.00 | 0.00 | 91 | 1013.7 |
| 20260509074537 | 35 | 0 | 0.0 | 0.0 | 0.00 | 0.00 | 0.00 | 90 | 1013.7 |
| 20260509074026 | 35 | 0 | 0.0 | 0.0 | 0.00 | 0.00 | 0.00 | 91 | 1013.7 |
| 20260509073526 | 35 | 0 | 0.0 | 0.0 | 0.00 | 0.00 | 0.00 | 91 | 1013.6 |
| 20260509073046 | 35 | 0 | 0.0 | 0.0 | 0.00 | 0.00 | 0.00 | 91 | 1013.7 |
| 20260509072526 | 35 | 0 | 0.0 | 0.0 | 0.00 | 0.00 | 0.00 | 90 | 1013.5 |
| 20260509072026 | 35 | 0 | 0.0 | 0.0 | 0.00 | 0.00 | 0.00 | 89 | 1013.5 |
| 20260509071542 | 35 | 0 | 0.0 | 0.0 | 0.00 | 0.00 | 0.00 | 89 | 1013.5 |
| 20260509071026 | 35 | 0 | 0.0 | 0.0 | 0.00 | 0.00 | 0.00 | 89 | 1013.5 |
| 20260509070526 | 36 | 0 | 0.0 | 0.0 | 0.00 | 0.00 | 0.00 | 88 | 1013.5 |
| 20260509070040 | 36 | 0 | 0.0 | 0.0 | 0.00 | 0.00 | 0.00 | 88 | 1013.4 |
| 20260509065525 | 36 | 0 | 0.0 | 0.0 | 0.00 | 0.00 | 0.00 | 88 | 1013.4 |
| 20260509065023 | 36 | 0 | 0.0 | 0.0 | 0.00 | 0.00 | 0.00 | 87 | 1013.4 |
| 20260509064544 | 36 | 0 | 0.0 | 0.0 | 0.00 | 0.00 | 0.00 | 88 | 1013.4 |
| 20260509064029 | 36 | 0 | 0.0 | 0.0 | 0.00 | 0.00 | 0.00 | 87 | 1013.3 |
| 20260509063531 | 37 | 0 | 0.0 | 0.0 | 0.00 | 0.00 | 0.00 | 87 | 1013.3 |
| 20260509063035 | 37 | 0 | 0.0 | 0.0 | 0.00 | 0.00 | 0.00 | 87 | 1013.3 |
| 20260509062530 | 37 | 0 | 0.0 | 0.0 | 0.00 | 0.00 | 0.00 | 87 | 1013.3 |
| 20260509062031 | 37 | 0 | 0.0 | 0.0 | 0.00 | 0.00 | 0.00 | 87 | 1013.3 |
| 20260509061546 | 37 | 0 | 0.0 | 0.0 | 0.00 | 0.00 | 0.00 | 87 | 1013.3 |
| 20260509061026 | 37 | 0 | 0.0 | 0.0 | 0.00 | 0.00 | 0.00 | 86 | 1013.3 |
| 20260509060525 | 37 | 0 | 0.0 | 0.0 | 0.00 | 0.00 | 0.00 | 86 | 1013.3 |
| 20260509060043 | 37 | 0 | 0.0 | 0.0 | 0.00 | 0.00 | 0.00 | 86 | 1013.4 |
| 20260509055526 | 37 | 0 | 0.0 | 0.0 | 0.00 | 0.00 | 0.00 | 87 | 1013.4 |
| 20260509055028 | 37 | 0 | 0.0 | 0.0 | 0.00 | 0.00 | 0.00 | 87 | 1013.4 |
| 20260509054540 | 37 | 0 | 0.0 | 0.0 | 0.00 | 0.00 | 0.00 | 86 | 1013.5 |
| 20260509054028 | 37 | 0 | 0.0 | 0.0 | 0.00 | 0.00 | 0.00 | 86 | 1013.5 |
| 20260509053526 | 37 | 0 | 0.0 | 0.0 | 0.00 | 0.00 | 0.00 | 85 | 1013.6 |
| 20260509053058 | 37 | 0 | 0.0 | 0.0 | 0.00 | 0.00 | 0.00 | 85 | 1013.5 |
| 20260509052527 | 37 | 0 | 0.0 | 0.0 | 0.00 | 0.00 | 0.00 | 85 | 1013.5 |
| 20260509052026 | 37 | 0 | 0.0 | 0.0 | 0.00 | 0.00 | 0.00 | 85 | 1013.5 |
| 20260509051536 | 38 | 0 | 0.0 | 0.0 | 0.00 | 0.00 | 0.00 | 85 | 1013.4 |
| 20260509051025 | 38 | 0 | 0.0 | 0.0 | 0.00 | 0.00 | 0.00 | 84 | 1013.2 |
| 20260509050526 | 38 | 0 | 0.0 | 0.0 | 0.00 | 0.00 | 0.00 | 84 | 1013.3 |
| 20260509050046 | 38 | 0 | 0.0 | 0.0 | 0.00 | 0.00 | 0.00 | 83 | 1013.3 |
| 20260509045528 | 38 | 0 | 0.0 | 0.0 | 0.00 | 0.00 | 0.00 | 83 | 1013.2 |
| 20260509045026 | 38 | 0 | 0.0 | 0.0 | 0.00 | 0.00 | 0.00 | 82 | 1013.3 |
| 20260509044542 | 38 | 0 | 0.0 | 0.0 | 0.00 | 0.00 | 0.00 | 82 | 1013.3 |
| 20260509044024 | 39 | 0 | 0.0 | 0.0 | 0.00 | 0.00 | 0.00 | 82 | 1013.3 |
| 20260509043525 | 39 | 0 | 0.0 | 0.0 | 0.00 | 0.00 | 0.00 | 82 | 1013.3 |
| 20260509043050 | 39 | 0 | 0.0 | 0.0 | 0.00 | 0.00 | 0.00 | 81 | 1013.3 |
| 20260509042524 | 39 | 0 | 0.0 | 0.0 | 0.00 | 0.00 | 0.00 | 81 | 1013.3 |
| 20260509042025 | 39 | 0 | 0.0 | 0.0 | 0.00 | 0.00 | 0.00 | 80 | 1013.2 |
| 20260509041550 | 39 | 0 | 0.0 | 0.0 | 0.00 | 0.00 | 0.00 | 80 | 1013.1 |
| 20260509041029 | 40 | 0 | 0.0 | 0.0 | 0.00 | 0.00 | 0.00 | 79 | 1013.0 |
| 20260509040528 | 40 | 0 | 0.0 | 0.0 | 0.00 | 0.00 | 0.00 | 78 | 1013.0 |
| 20260509040039 | 40 | 0 | 0.0 | 0.0 | 0.00 | 0.00 | 0.00 | 78 | 1013.0 |
| 20260509035524 | 40 | 0 | 0.0 | 0.0 | 0.00 | 0.00 | 0.00 | 78 | 1012.9 |
| 20260509035026 | 40 | 0 | 0.0 | 0.0 | 0.00 | 0.00 | 0.00 | 78 | 1012.9 |
| 20260509034601 | 40 | 0 | 0.0 | 0.0 | 0.00 | 0.00 | 0.00 | 77 | 1012.9 |
| 20260509034027 | 40 | 0 | 0.0 | 0.0 | 0.00 | 0.00 | 0.00 | 77 | 1013.0 |
| 20260509033525 | 40 | 0 | 0.0 | 0.0 | 0.00 | 0.00 | 0.00 | 76 | 1012.9 |
| 20260509033041 | 40 | 0 | 0.0 | 0.0 | 0.00 | 0.00 | 0.00 | 77 | 1012.9 |
| 20260509032524 | 40 | 0 | 0.0 | 0.0 | 0.00 | 0.00 | 0.00 | 76 | 1013.0 |
| 20260509032026 | 41 | 0 | 0.0 | 0.0 | 0.00 | 0.00 | 0.00 | 76 | 1012.8 |
| 20260509031540 | 41 | 0 | 0.0 | 0.0 | 0.00 | 0.00 | 0.00 | 75 | 1012.9 |
| 20260509031024 | 41 | 0 | 0.0 | 0.0 | 0.00 | 0.00 | 0.00 | 75 | 1012.9 |
| 20260509030526 | 41 | 0 | 0.0 | 0.0 | 0.00 | 0.00 | 0.00 | 73 | 1012.8 |
| 20260509030042 | 42 | 0 | 0.0 | 0.0 | 0.00 | 0.00 | 0.00 | 73 | 1012.8 |
| 20260509025524 | 42 | 0 | 0.0 | 0.0 | 0.00 | 0.00 | 0.00 | 73 | 1012.8 |
| 20260509025024 | 42 | 0 | 0.0 | 0.0 | 0.00 | 0.00 | 0.00 | 72 | 1012.8 |
| 20260509024543 | 42 | 0 | 0.0 | 0.0 | 0.00 | 0.00 | 0.00 | 71 | 1012.7 |
| 20260509024028 | 43 | 0 | 0.0 | 0.0 | 0.00 | 0.00 | 0.00 | 71 | 1012.7 |
| 20260509023526 | 43 | 0 | 0.0 | 0.0 | 0.00 | 0.00 | 0.00 | 70 | 1012.7 |
| 20260509023045 | 43 | 0 | 0.0 | 0.0 | 0.00 | 0.00 | 0.00 | 69 | 1012.6 |
| 20260509022525 | 43 | 0 | 0.0 | 0.0 | 0.00 | 0.00 | 0.00 | 68 | 1012.7 |
| 20260509022024 | 44 | 0 | 0.0 | 0.0 | 0.00 | 0.00 | 0.00 | 68 | 1012.7 |
| 20260509021541 | 44 | 0 | 0.0 | 0.0 | 0.00 | 0.00 | 0.00 | 67 | 1012.6 |
| 20260509021025 | 44 | 0 | 0.0 | 0.0 | 0.00 | 0.00 | 0.00 | 67 | 1012.4 |
| 20260509020526 | 45 | 0 | 0.0 | 0.0 | 0.00 | 0.00 | 0.00 | 66 | 1012.2 |
| 20260509020047 | 45 | 0 | 0.0 | 0.0 | 0.00 | 0.00 | 0.00 | 65 | 1012.1 |
| 20260509015526 | 45 | 0 | 0.0 | 0.0 | 0.00 | 0.00 | 0.00 | 64 | 1012.0 |
| 20260509015025 | 45 | 0 | 0.0 | 0.0 | 0.00 | 0.00 | 0.00 | 63 | 1012.0 |
| 20260509014538 | 45 | 0 | 0.0 | 0.0 | 0.00 | 0.00 | 0.00 | 63 | 1012.0 |
| 20260509014027 | 46 | 0 | 0.0 | 0.0 | 0.00 | 0.00 | 0.00 | 62 | 1012.0 |
| 20260509013524 | 46 | 0 | 0.0 | 0.0 | 0.00 | 0.00 | 0.00 | 62 | 1012.0 |
| 20260509013047 | 46 | 0 | 0.0 | 0.0 | 0.00 | 0.00 | 0.00 | 61 | 1011.8 |
| 20260509012527 | 46 | 0 | 0.0 | 0.0 | 0.00 | 0.00 | 0.00 | 59 | 1011.7 |
| 20260509012027 | 47 | 0 | 0.0 | 0.0 | 0.00 | 0.00 | 0.00 | 59 | 1011.7 |
| 20260509011541 | 47 | 0 | 0.0 | 0.0 | 0.00 | 0.00 | 0.00 | 58 | 1011.6 |
| 20260509011025 | 47 | 0 | 0.0 | 0.0 | 0.00 | 0.00 | 0.00 | 57 | 1011.5 |
| 20260509010527 | 48 | 0 | 0.0 | 0.0 | 0.00 | 0.00 | 0.00 | 55 | 1011.4 |
| 20260509010051 | 48 | 0 | 0.0 | 0.0 | 0.00 | 0.00 | 0.00 | 54 | 1011.4 |
| 20260509005526 | 48 | 0 | 0.0 | 0.0 | 0.00 | 0.00 | 0.00 | 53 | 1011.2 |
| 20260509005028 | 49 | 203 | 0.0 | 0.0 | 0.00 | 0.00 | 0.00 | 52 | 1011.1 |
| 20260509004537 | 49 | 0 | 0.0 | 0.0 | 0.00 | 0.00 | 0.00 | 51 | 1011.1 |
| 20260509004024 | 49 | 0 | 0.0 | 0.0 | 0.00 | 0.00 | 0.00 | 50 | 1010.9 |
| 20260509003526 | 50 | 0 | 0.0 | 0.0 | 0.00 | 0.00 | 0.00 | 49 | 1010.8 |
| 20260509003037 | 50 | 0 | 0.0 | 0.0 | 0.00 | 0.00 | 0.00 | 49 | 1010.7 |
| 20260509002524 | 50 | 0 | 0.0 | 0.0 | 0.00 | 0.00 | 0.00 | 48 | 1010.6 |
| 20260509002024 | 51 | 203 | 0.0 | 0.0 | 0.00 | 0.00 | 0.00 | 47 | 1010.4 |
| 20260509001543 | 52 | 0 | 0.0 | 1.0 | 0.00 | 0.00 | 0.00 | 45 | 1010.4 |
| 20260509001025 | 52 | 0 | 0.0 | 1.0 | 0.00 | 0.00 | 0.00 | 45 | 1010.4 |
| 20260509000529 | 53 | 326 | 0.0 | 6.0 | 0.00 | 0.00 | 0.00 | 43 | 1010.1 |
| 20260509000043 | 53 | 0 | 0.0 | 8.0 | 0.00 | 0.00 | 0.00 | 42 | 1010.1 |
| 20260508235527 | 53 | 318 | 1.0 | 8.0 | 0.00 | 0.00 | 0.00 | 41 | 1010.0 |
| 20260508235025 | 53 | 319 | 2.0 | 8.0 | 0.00 | 0.00 | 0.00 | 40 | 1010.0 |
| 20260508234540 | 54 | 318 | 0.0 | 9.0 | 0.00 | 0.00 | 0.00 | 40 | 1009.9 |
| 20260508234027 | 54 | 357 | 1.0 | 9.0 | 0.00 | 0.00 | 0.00 | 39 | 1009.9 |
| 20260508233530 | 54 | 39 | 1.0 | 8.0 | 0.00 | 0.00 | 0.00 | 40 | 1009.8 |
| 20260508233037 | 54 | 0 | 0.0 | 2.0 | 0.00 | 0.00 | 0.00 | 40 | 1009.6 |
| 20260508232524 | 54 | 30 | 0.0 | 5.0 | 0.00 | 0.00 | 0.00 | 39 | 1009.5 |
| 20260508232024 | 54 | 285 | 1.0 | 5.0 | 0.00 | 0.00 | 0.00 | 40 | 1009.5 |
| 20260508231548 | 54 | 348 | 0.0 | 2.0 | 0.00 | 0.00 | 0.00 | 40 | 1009.3 |
| 20260508231029 | 55 | 0 | 0.0 | 2.0 | 0.00 | 0.00 | 0.00 | 40 | 1009.3 |
| 20260508230524 | 55 | 6 | 0.0 | 3.0 | 0.00 | 0.00 | 0.00 | 40 | 1009.3 |
| 20260508230056 | 55 | 117 | 0.0 | 4.0 | 0.00 | 0.00 | 0.00 | 41 | 1009.1 |
| 20260508225524 | 55 | 117 | 1.0 | 4.0 | 0.00 | 0.00 | 0.00 | 41 | 1009.1 |
| 20260508225025 | 55 | 229 | 1.0 | 4.0 | 0.00 | 0.00 | 0.00 | 39 | 1009.1 |
| 20260508224546 | 56 | 238 | 1.0 | 5.0 | 0.00 | 0.00 | 0.00 | 39 | 1009.0 |
| 20260508224024 | 56 | 356 | 1.0 | 5.0 | 0.00 | 0.00 | 0.00 | 39 | 1009.0 |
| 20260508223524 | 56 | 44 | 1.0 | 5.0 | 0.00 | 0.00 | 0.00 | 39 | 1009.0 |
| 20260508223042 | 56 | 153 | 1.0 | 4.0 | 0.00 | 0.00 | 0.00 | 39 | 1009.0 |
| 20260508222528 | 56 | 0 | 1.0 | 3.0 | 0.00 | 0.00 | 0.00 | 39 | 1009.0 |
| 20260508222026 | 56 | 100 | 0.0 | 8.0 | 0.00 | 0.00 | 0.00 | 39 | 1009.0 |
| 20260508221545 | 56 | 91 | 0.0 | 8.0 | 0.00 | 0.00 | 0.00 | 40 | 1009.1 |
| 20260508221026 | 56 | 338 | 2.0 | 8.0 | 0.00 | 0.00 | 0.00 | 37 | 1008.9 |
| 20260508220525 | 57 | 71 | 2.0 | 7.0 | 0.00 | 0.00 | 0.00 | 36 | 1009.0 |
| 20260508220038 | 57 | 253 | 3.0 | 7.0 | 0.00 | 0.00 | 0.00 | 36 | 1008.9 |
| 20260508215524 | 58 | 335 | 2.0 | 7.0 | 0.00 | 0.00 | 0.00 | 35 | 1008.9 |
| 20260508215026 | 58 | 257 | 1.0 | 6.0 | 0.00 | 0.00 | 0.00 | 35 | 1008.8 |
| 20260508214544 | 58 | 20 | 1.0 | 5.0 | 0.00 | 0.00 | 0.00 | 37 | 1008.6 |
| 20260508214024 | 58 | 172 | 0.0 | 4.0 | 0.00 | 0.00 | 0.00 | 37 | 1008.7 |
| 20260508213526 | 58 | 158 | 1.0 | 5.0 | 0.00 | 0.00 | 0.00 | 37 | 1008.7 |
| 20260508213044 | 58 | 210 | 1.0 | 5.0 | 0.00 | 0.00 | 0.00 | 37 | 1008.7 |
| 20260508212527 | 58 | 0 | 1.0 | 5.0 | 0.00 | 0.00 | 0.00 | 35 | 1008.5 |
| 20260508212025 | 58 | 86 | 2.0 | 5.0 | 0.00 | 0.00 | 0.00 | 36 | 1008.7 |
| 20260508211542 | 58 | 27 | 0.0 | 5.0 | 0.00 | 0.00 | 0.00 | 36 | 1008.7 |
| 20260508211025 | 58 | 313 | 1.0 | 8.0 | 0.00 | 0.00 | 0.00 | 37 | 1008.7 |
| 20260508210526 | 59 | 0 | 2.0 | 8.0 | 0.00 | 0.00 | 0.00 | 35 | 1008.6 |
| 20260508210039 | 59 | 243 | 2.0 | 7.0 | 0.00 | 0.00 | 0.00 | 34 | 1008.4 |
| 20260508205525 | 59 | 239 | 2.0 | 7.0 | 0.00 | 0.00 | 0.00 | 37 | 1008.4 |
| 20260508205030 | 59 | 88 | 1.0 | 4.0 | 0.00 | 0.00 | 0.00 | 37 | 1008.4 |
| 20260508204548 | 59 | 89 | 1.0 | 4.0 | 0.00 | 0.00 | 0.00 | 35 | 1008.5 |
| 20260508204027 | 59 | 177 | 1.0 | 6.0 | 0.00 | 0.00 | 0.00 | 34 | 1008.4 |
| 20260508203527 | 59 | 296 | 1.0 | 9.0 | 0.00 | 0.00 | 0.00 | 38 | 1008.4 |
| 20260508203035 | 59 | 31 | 2.0 | 10.0 | 0.00 | 0.00 | 0.00 | 35 | 1008.5 |
| 20260508202526 | 59 | 295 | 2.0 | 10.0 | 0.00 | 0.00 | 0.00 | 37 | 1008.3 |
| 20260508202027 | 59 | 24 | 2.0 | 10.0 | 0.00 | 0.00 | 0.00 | 40 | 1008.5 |
| 20260508201546 | 59 | 124 | 1.0 | 5.0 | 0.00 | 0.00 | 0.00 | 39 | 1008.4 |
| 20260508201027 | 59 | 356 | 0.0 | 8.0 | 0.00 | 0.00 | 0.00 | 38 | 1008.4 |
| 20260508200527 | 59 | 284 | 2.0 | 8.0 | 0.00 | 0.00 | 0.00 | 37 | 1008.3 |
| 20260508200051 | 59 | 77 | 2.0 | 7.0 | 0.00 | 0.00 | 0.00 | 37 | 1008.4 |
| 20260508195526 | 59 | 132 | 1.0 | 12.0 | 0.00 | 0.00 | 0.00 | 37 | 1008.5 |
| 20260508195025 | 59 | 129 | 2.0 | 12.0 | 0.00 | 0.00 | 0.00 | 38 | 1008.4 |
| 20260508194539 | 60 | 328 | 3.0 | 10.0 | 0.00 | 0.00 | 0.00 | 37 | 1008.3 |
| 20260508194027 | 60 | 130 | 2.0 | 11.0 | 0.00 | 0.00 | 0.00 | 36 | 1008.5 |
| 20260508193531 | 60 | 114 | 3.0 | 11.0 | 0.00 | 0.00 | 0.00 | 38 | 1008.4 |
| 20260508193037 | 60 | 143 | 2.0 | 9.0 | 0.00 | 0.00 | 0.00 | 36 | 1008.4 |
| 20260508192530 | 61 | 80 | 2.0 | 8.0 | 0.00 | 0.00 | 0.00 | 35 | 1008.5 |
| 20260508192029 | 61 | 120 | 3.0 | 7.0 | 0.00 | 0.00 | 0.00 | 36 | 1008.3 |
| 20260508191534 | 60 | 224 | 2.0 | 11.0 | 0.00 | 0.00 | 0.00 | 34 | 1008.3 |
| 20260508191024 | 60 | 25 | 4.0 | 11.0 | 0.00 | 0.00 | 0.00 | 34 | 1008.5 |
| 20260508190524 | 61 | 158 | 3.0 | 9.0 | 0.00 | 0.00 | 0.00 | 34 | 1008.4 |
| 20260508190049 | 60 | 25 | 3.0 | 8.0 | 0.00 | 0.00 | 0.00 | 33 | 1008.5 |
| 20260508185530 | 61 | 270 | 2.0 | 8.0 | 0.00 | 0.00 | 0.00 | 37 | 1008.5 |
| 20260508185024 | 61 | 149 | 2.0 | 8.0 | 0.00 | 0.00 | 0.00 | 36 | 1008.4 |
| 20260508184543 | 61 | 131 | 2.0 | 9.0 | 0.00 | 0.00 | 0.00 | 36 | 1008.4 |
| 20260508184027 | 60 | 120 | 2.0 | 9.0 | 0.00 | 0.00 | 0.00 | 35 | 1008.3 |
| 20260508183523 | 60 | 274 | 1.0 | 5.0 | 0.00 | 0.00 | 0.00 | 34 | 1008.5 |
| 20260508183037 | 60 | 175 | 2.0 | 8.0 | 0.00 | 0.00 | 0.00 | 35 | 1008.4 |
| 20260508182529 | 60 | 2 | 3.0 | 8.0 | 0.00 | 0.00 | 0.00 | 35 | 1008.4 |
| 20260508182027 | 61 | 339 | 2.0 | 12.0 | 0.00 | 0.00 | 0.00 | 34 | 1008.3 |
| 20260508181537 | 60 | 248 | 1.0 | 12.0 | 0.00 | 0.00 | 0.00 | 36 | 1008.3 |
| 20260508181028 | 60 | 253 | 3.0 | 12.0 | 0.00 | 0.00 | 0.00 | 36 | 1008.4 |
| 20260508180529 | 60 | 60 | 1.0 | 8.0 | 0.00 | 0.00 | 0.00 | 38 | 1008.5 |
| 20260508180038 | 60 | 25 | 2.0 | 8.0 | 0.00 | 0.00 | 0.00 | 36 | 1008.4 |
| 20260508175524 | 59 | 32 | 1.0 | 6.0 | 0.00 | 0.00 | 0.00 | 39 | 1008.4 |
| 20260508175028 | 59 | 282 | 2.0 | 10.0 | 0.00 | 0.00 | 0.00 | 36 | 1008.4 |
| 20260508174539 | 60 | 151 | 2.0 | 10.0 | 0.00 | 0.00 | 0.00 | 36 | 1008.4 |
| 20260508174025 | 61 | 167 | 3.0 | 10.0 | 0.00 | 0.00 | 0.00 | 35 | 1008.4 |
| 20260508173525 | 61 | 269 | 2.0 | 13.0 | 0.00 | 0.00 | 0.00 | 36 | 1008.5 |
| 20260508173044 | 61 | 162 | 2.0 | 13.0 | 0.00 | 0.00 | 0.00 | 37 | 1008.5 |
| 20260508172526 | 61 | 222 | 3.0 | 8.0 | 0.00 | 0.00 | 0.00 | 35 | 1008.5 |
| 20260508172027 | 61 | 155 | 3.0 | 8.0 | 0.00 | 0.00 | 0.00 | 35 | 1008.5 |
| 20260508171539 | 60 | 228 | 2.0 | 7.0 | 0.00 | 0.00 | 0.00 | 38 | 1008.5 |
| 20260508171027 | 59 | 21 | 2.0 | 7.0 | 0.00 | 0.00 | 0.00 | 41 | 1008.4 |
| 20260508170523 | 59 | 195 | 1.0 | 7.0 | 0.00 | 0.00 | 0.00 | 39 | 1008.3 |
| 20260508170046 | 59 | 287 | 2.0 | 7.0 | 0.00 | 0.00 | 0.00 | 39 | 1008.3 |
| 20260508165527 | 58 | 140 | 1.0 | 7.0 | 0.00 | 0.00 | 0.00 | 39 | 1008.4 |
| 20260508165027 | 58 | 179 | 2.0 | 5.0 | 0.00 | 0.00 | 0.00 | 37 | 1008.6 |
| 20260508164538 | 59 | 193 | 1.0 | 11.0 | 0.00 | 0.00 | 0.00 | 37 | 1008.6 |
| 20260508164026 | 59 | 61 | 1.0 | 11.0 | 0.00 | 0.00 | 0.00 | 37 | 1008.5 |
| 20260508163527 | 61 | 309 | 2.0 | 11.0 | 0.00 | 0.00 | 0.00 | 35 | 1008.3 |
| 20260508163037 | 60 | 262 | 3.0 | 7.0 | 0.00 | 0.00 | 0.00 | 37 | 1008.3 |
| 20260508162525 | 60 | 205 | 3.0 | 7.0 | 0.00 | 0.00 | 0.00 | 37 | 1008.5 |
| 20260508162025 | 59 | 245 | 1.0 | 8.0 | 0.00 | 0.00 | 0.00 | 36 | 1008.4 |
| 20260508161543 | 59 | 219 | 3.0 | 12.0 | 0.00 | 0.00 | 0.00 | 42 | 1008.4 |
| 20260508161025 | 58 | 142 | 1.0 | 12.0 | 0.00 | 0.00 | 0.00 | 42 | 1008.5 |